Time;durP1;ratioP1;P1;durP2;ratioP2;P2;SDS_P1;SDS_P2;PMS_P1;PMS_P2;Temp;Humidity;BMP_temperature;BMP_pressure;BME280_temperature;BME280_humidity;BME280_pressure;Samples;Min_cycle;Max_cycle;Signal;HPM_P1;HPM_P2
2023/03/17 00:04:00;;;;;;;125.30;56.00;;;;;;;-1.93;74.19;99495.17;221318;1263;24382;-73
2023/03/17 00:09:13;;;;;;;128.20;60.90;;;;;;;-1.97;73.98;99497.46;221397;1276;23066;-74
2023/03/17 00:14:18;;;;;;;113.50;53.80;;;;;;;-2.00;74.69;99508.67;221108;1276;22566;-72
2023/03/17 00:19:30;;;;;;;108.00;48.00;;;;;;;-2.02;74.38;99509.47;221481;1275;24242;-74
2023/03/17 00:24:32;;;;;;;107.00;49.70;;;;;;;-2.02;74.25;99520.88;221565;1273;25340;-73
2023/03/17 00:29:34;;;;;;;100.50;48.90;;;;;;;-2.05;74.40;99514.29;221128;1279;22533;-73
2023/03/17 00:34:38;;;;;;;111.90;50.70;;;;;;;-2.08;74.45;99514.68;221288;1279;25526;-73
2023/03/17 00:39:45;;;;;;;100.00;47.80;;;;;;;-2.12;74.39;99514.58;221115;1277;22628;-73
2023/03/17 00:44:51;;;;;;;105.50;50.50;;;;;;;-2.15;74.46;99508.66;221233;1277;22692;-73
2023/03/17 00:50:03;;;;;;;120.60;55.90;;;;;;;-2.15;74.80;99505.95;221334;1270;24219;-73
2023/03/17 00:55:26;;;;;;;124.00;59.50;;;;;;;-2.17;75.07;99501.02;221278;1271;23886;-73
2023/03/17 01:00:28;;;;;;;137.20;63.00;;;;;;;-2.15;75.60;99486.79;221081;1277;23084;-73
2023/03/17 01:05:31;;;;;;;135.30;66.60;;;;;;;-2.11;75.89;99481.03;221374;1277;26243;-73
2023/03/17 01:10:36;;;;;;;129.40;64.20;;;;;;;-2.10;75.93;99477.02;221165;1274;25639;-73
2023/03/17 01:15:42;;;;;;;134.80;65.50;;;;;;;-2.13;75.85;99482.90;221131;1268;22829;-73
2023/03/17 01:20:45;;;;;;;133.70;64.00;;;;;;;-2.17;76.14;99482.92;221175;1277;22664;-73
2023/03/17 01:25:48;;;;;;;115.80;58.40;;;;;;;-2.20;76.03;99479.78;221367;1268;22635;-74
2023/03/17 01:30:52;;;;;;;126.60;59.70;;;;;;;-2.22;76.37;99481.69;221062;1279;22584;-73
2023/03/17 01:35:54;;;;;;;123.20;61.90;;;;;;;-2.28;76.09;99481.67;221297;1271;22593;-74
2023/03/17 01:40:57;;;;;;;114.90;58.80;;;;;;;-2.33;76.54;99480.41;221279;1277;22613;-74
2023/03/17 01:46:32;;;;;;;117.80;59.20;;;;;;;-2.37;76.31;99478.27;221373;1263;25374;-74
2023/03/17 01:51:43;;;;;;;122.30;56.70;;;;;;;-2.41;76.52;99470.92;221732;1274;22570;-73
2023/03/17 01:56:49;;;;;;;106.70;55.00;;;;;;;-2.41;76.47;99466.28;221077;1277;22583;-74
2023/03/17 02:01:59;;;;;;;123.20;59.30;;;;;;;-2.42;76.77;99462.88;221459;1272;25472;-74
2023/03/17 02:07:03;;;;;;;121.30;59.20;;;;;;;-2.43;76.67;99447.59;221393;1277;25537;-73
2023/03/17 02:12:08;;;;;;;131.50;64.10;;;;;;;-2.43;76.86;99442.73;221424;1279;25547;-73
2023/03/17 02:17:10;;;;;;;124.30;59.30;;;;;;;-2.43;76.97;99433.23;221180;1267;22893;-74
2023/03/17 02:22:13;;;;;;;127.80;59.30;;;;;;;-2.40;76.76;99415.00;221209;1275;22734;-73
2023/03/17 02:27:28;;;;;;;117.70;57.30;;;;;;;-2.37;77.03;99416.31;221177;1277;23140;-75
2023/03/17 02:32:34;;;;;;;113.60;56.20;;;;;;;-2.35;76.93;99405.02;221841;1256;25402;-74
2023/03/17 02:37:37;;;;;;;110.50;57.50;;;;;;;-2.36;76.93;99407.65;221323;1277;22584;-74
2023/03/17 02:42:40;;;;;;;122.20;62.10;;;;;;;-2.37;76.82;99410.45;220966;1279;22607;-74
2023/03/17 02:47:43;;;;;;;115.00;58.90;;;;;;;-2.37;77.18;99392.55;221495;1279;22726;-74
2023/03/17 02:52:45;;;;;;;116.50;56.80;;;;;;;-2.40;77.22;99398.73;221041;1277;156600;-73
2023/03/17 02:57:47;;;;;;;132.40;65.00;;;;;;;-2.46;77.00;99405.65;221056;1276;22699;-73
2023/03/17 03:02:49;;;;;;;129.50;62.50;;;;;;;-2.54;77.01;99407.70;221441;1276;22723;-73
2023/03/17 03:07:52;;;;;;;119.00;60.00;;;;;;;-2.61;77.05;99412.39;221274;1279;22720;-73
2023/03/17 03:12:54;;;;;;;118.30;60.10;;;;;;;-2.66;77.51;99414.23;221180;1263;24220;-74
2023/03/17 03:17:57;;;;;;;115.50;57.30;;;;;;;-2.69;77.49;99417.91;221249;1274;23987;-74
2023/03/17 03:22:59;;;;;;;114.60;56.80;;;;;;;-2.72;77.56;99411.17;221312;1279;24318;-74
2023/03/17 03:28:01;;;;;;;115.20;57.50;;;;;;;-2.75;77.52;99427.67;221266;1279;24293;-73
2023/03/17 03:33:04;;;;;;;115.30;57.90;;;;;;;-2.77;77.80;99430.05;221189;1279;22586;-73
2023/03/17 03:38:07;;;;;;;112.30;57.10;;;;;;;-2.80;77.87;99436.60;221375;1277;22887;-73
2023/03/17 03:43:09;;;;;;;107.60;55.90;;;;;;;-2.82;77.67;99437.64;221178;1279;22534;-74
2023/03/17 03:48:24;;;;;;;111.80;58.10;;;;;;;-2.86;77.83;99439.04;221259;1276;22608;-72
2023/03/17 03:53:27;;;;;;;122.90;58.50;;;;;;;-2.88;78.09;99436.23;221192;1277;22747;-73
2023/03/17 03:58:29;;;;;;;112.50;58.40;;;;;;;-2.90;78.20;99428.40;221304;1277;25589;-72
2023/03/17 04:03:32;;;;;;;105.40;56.30;;;;;;;-2.90;78.23;99428.55;221209;1279;22652;-73
2023/03/17 04:08:34;;;;;;;108.10;55.60;;;;;;;-2.91;78.47;99422.73;221176;1279;22634;-72
2023/03/17 04:13:37;;;;;;;87.00;47.90;;;;;;;-2.91;78.49;99424.30;221486;1276;22557;-73
2023/03/17 04:18:40;;;;;;;82.60;44.10;;;;;;;-2.88;78.78;99410.39;221325;1277;22639;-73
2023/03/17 04:23:42;;;;;;;98.70;52.00;;;;;;;-2.86;78.86;99401.47;221362;1279;25487;-72
2023/03/17 04:28:44;;;;;;;89.90;49.90;;;;;;;-2.85;78.73;99402.42;221211;1274;22641;-73
2023/03/17 04:33:47;;;;;;;85.90;45.60;;;;;;;-2.83;78.66;99403.55;221447;1279;24418;-72
2023/03/17 04:38:50;;;;;;;89.30;48.80;;;;;;;-2.82;78.77;99404.17;221519;1277;25600;-72
2023/03/17 04:43:52;;;;;;;91.30;49.20;;;;;;;-2.83;78.76;99415.09;221304;1278;24246;-73
2023/03/17 04:48:55;;;;;;;95.40;51.50;;;;;;;-2.83;78.78;99423.88;221440;1268;22601;-73
2023/03/17 04:53:59;;;;;;;91.80;51.30;;;;;;;-2.83;78.85;99429.73;221522;1277;22764;-72
2023/03/17 04:59:02;;;;;;;92.80;53.60;;;;;;;-2.83;78.75;99425.60;221345;1268;23963;-72
2023/03/17 05:04:05;;;;;;;95.90;52.90;;;;;;;-2.81;78.82;99427.86;221237;1277;24258;-73
2023/03/17 05:09:08;;;;;;;105.50;57.40;;;;;;;-2.80;78.95;99422.15;221081;1279;23128;-72
2023/03/17 05:14:10;;;;;;;101.60;55.30;;;;;;;-2.79;78.90;99420.52;221247;1279;25485;-72
2023/03/17 05:19:13;;;;;;;89.20;51.10;;;;;;;-2.76;78.81;99424.02;221098;1277;24386;-73
2023/03/17 05:24:15;;;;;;;92.30;52.80;;;;;;;-2.72;79.11;99421.17;221422;1275;25594;-72
2023/03/17 05:29:18;;;;;;;102.20;55.20;;;;;;;-2.68;79.16;99424.18;221346;1277;23336;-71
2023/03/17 05:34:20;;;;;;;86.20;48.90;;;;;;;-2.61;79.15;99422.55;221327;1279;25698;-73
2023/03/17 05:39:22;;;;;;;92.40;50.80;;;;;;;-2.49;79.26;99423.25;221157;1271;22548;-73
2023/03/17 05:44:25;;;;;;;84.20;45.70;;;;;;;-2.34;79.55;99422.19;221106;1278;22617;-74
2023/03/17 05:49:27;;;;;;;82.50;48.50;;;;;;;-2.21;79.59;99421.75;221460;1279;23007;-73
2023/03/17 05:54:30;;;;;;;84.70;48.70;;;;;;;-2.06;79.39;99421.88;221266;1274;24306;-71
2023/03/17 05:59:33;;;;;;;81.10;48.80;;;;;;;-1.92;79.63;99426.85;221517;1268;22701;-73
2023/03/17 06:04:36;;;;;;;87.60;51.70;;;;;;;-1.77;79.69;99422.67;221332;1255;22614;-73
2023/03/17 06:09:39;;;;;;;91.80;53.60;;;;;;;-1.64;79.35;99427.89;221261;1279;22587;-73
2023/03/17 06:14:41;;;;;;;78.40;48.10;;;;;;;-1.49;79.52;99426.27;221222;1279;22679;-72
2023/03/17 06:19:43;;;;;;;81.50;46.80;;;;;;;-1.32;79.65;99426.59;221577;1277;22528;-73
2023/03/17 06:24:48;;;;;;;86.00;53.40;;;;;;;-1.12;79.38;99436.88;221392;1278;22888;-73
2023/03/17 06:29:50;;;;;;;95.20;54.00;;;;;;;-0.98;79.05;99424.73;221394;1279;25452;-73
2023/03/17 06:34:53;;;;;;;91.40;54.20;;;;;;;-0.77;79.50;99424.02;221471;1279;23796;-74
2023/03/17 06:39:56;;;;;;;99.10;54.80;;;;;;;-0.57;78.91;99429.30;221423;1278;24205;-73
2023/03/17 06:44:58;;;;;;;100.40;56.70;;;;;;;-0.37;78.80;99437.48;221327;1279;22542;-72
2023/03/17 06:50:01;;;;;;;87.20;49.90;;;;;;;-0.19;78.71;99439.73;221621;1261;25345;-73
2023/03/17 06:55:05;;;;;;;95.80;52.00;;;;;;;-0.01;78.47;99433.29;222760;1265;24302;-71
2023/03/17 07:00:14;;;;;;;98.20;52.10;;;;;;;0.19;78.47;99428.75;222652;1272;22545;-73
2023/03/17 07:05:19;;;;;;;84.70;50.10;;;;;;;0.43;78.57;99439.37;222178;1265;138767;-74
2023/03/17 07:10:22;;;;;;;69.10;41.00;;;;;;;0.65;78.15;99447.33;221957;1266;138966;-77
2023/03/17 07:15:33;;;;;;;69.50;40.50;;;;;;;0.85;77.67;99450.02;221871;1268;22528;-74
2023/03/17 07:20:35;;;;;;;61.00;38.80;;;;;;;1.08;77.73;99457.04;221782;1264;22490;-73
2023/03/17 07:25:42;;;;;;;66.20;39.20;;;;;;;1.33;77.54;99458.19;221739;1261;138578;-74
2023/03/17 07:30:46;;;;;;;66.20;38.40;;;;;;;1.56;77.25;99456.41;221632;1272;138625;-72
2023/03/17 07:35:50;;;;;;;60.20;35.80;;;;;;;1.82;77.15;99460.53;222440;1262;139106;-73
2023/03/17 07:40:54;;;;;;;70.00;43.10;;;;;;;2.10;77.08;99462.55;221544;1264;138579;-74
2023/03/17 07:46:00;;;;;;;53.10;34.10;;;;;;;2.44;76.97;99461.31;221164;1268;139405;-74
2023/03/17 07:51:04;;;;;;;35.60;22.60;;;;;;;2.82;76.66;99458.11;221688;1257;22530;-75
2023/03/17 07:56:08;;;;;;;22.90;11.40;;;;;;;3.24;75.67;99449.19;221411;1265;138932;-73
2023/03/17 08:01:10;;;;;;;23.30;10.10;;;;;;;3.66;74.14;99443.70;221461;1268;138996;-74
2023/03/17 10:08:11;;;;;;;17.70;8.70;;;;;;;9.39;56.73;99336.96;216569;1292;545505;-73
2023/03/17 10:13:56;;;;;;;13.50;7.70;;;;;;;9.72;56.16;99331.20;221294;1281;138306;-73
2023/03/17 10:19:20;;;;;;;15.30;7.70;;;;;;;10.03;54.99;99323.25;221511;1289;137730;-74
2023/03/17 10:24:58;;;;;;;14.20;8.50;;;;;;;10.36;54.95;99329.05;221471;1280;138350;-74
2023/03/17 10:30:12;;;;;;;12.40;7.60;;;;;;;10.57;54.23;99331.71;221358;1278;138209;-74
2023/03/17 10:35:17;;;;;;;8.70;6.20;;;;;;;10.92;54.21;99331.36;221554;1288;23771;-74
2023/03/17 10:40:27;;;;;;;8.30;5.40;;;;;;;11.28;53.88;99330.88;221637;1285;137547;-73
2023/03/17 10:45:37;;;;;;;4.50;3.00;;;;;;;11.58;53.07;99322.10;221405;1270;137288;-74
2023/03/17 10:50:45;;;;;;;4.30;2.50;;;;;;;11.66;50.98;99315.67;221771;1286;137606;-73
2023/03/17 10:55:52;;;;;;;5.80;2.90;;;;;;;11.76;50.55;99289.20;221565;1285;137619;-72
2023/03/17 11:01:21;;;;;;;4.50;3.00;;;;;;;11.94;50.35;99262.69;221486;1277;138160;-76
2023/03/17 11:06:41;;;;;;;8.60;3.90;;;;;;;12.10;49.19;99256.42;221606;1292;137923;-76
2023/03/17 11:11:50;;;;;;;6.30;3.70;;;;;;;12.28;49.02;99271.93;221396;1291;22597;-75
2023/03/17 11:17:30;;;;;;;;;;;;;;;;;;;;;
2023/03/17 11:22:49;;;;;;;;;;;;;;;12.43;47.62;99270.84;221968;1289;137648;-75
2023/03/17 11:28:17;;;;;;;4.30;3.30;;;;;;;12.40;47.09;99272.23;221505;1292;124171;-77
2023/03/17 11:33:50;;;;;;;5.70;3.50;;;;;;;12.61;47.17;99267.42;221672;1291;137567;-75
2023/03/17 11:39:06;;;;;;;6.50;3.90;;;;;;;12.86;47.31;99273.05;222921;1279;138105;-76
2023/03/17 11:44:40;;;;;;;6.20;3.60;;;;;;;13.09;46.95;99262.91;223173;1284;138016;-77
2023/03/17 11:50:11;;;;;;;6.00;3.40;;;;;;;13.23;46.80;99257.48;222920;1285;138135;-76
2023/03/17 11:55:48;;;;;;;4.10;3.00;;;;;;;13.29;45.67;99246.45;222680;1279;137805;-75
2023/03/17 12:01:00;;;;;;;6.70;3.30;;;;;;;13.31;45.72;99246.50;222371;1279;137458;-77
2023/03/17 12:06:49;;;;;;;6.50;4.00;;;;;;;13.40;45.61;99235.53;222961;1274;137854;-76
2023/03/17 12:11:54;;;;;;;6.30;3.70;;;;;;;13.34;45.30;99233.09;223373;1272;22555;-76
2023/03/17 12:17:33;;;;;;;6.60;3.70;;;;;;;13.25;44.82;99228.29;223744;1278;22647;-77
2023/03/17 12:23:15;;;;;;;7.50;4.50;;;;;;;13.16;44.49;99223.61;224497;1278;137893;-77
2023/03/17 12:28:26;;;;;;;6.40;4.30;;;;;;;13.12;44.95;99214.33;224261;1281;137119;-76
2023/03/17 12:33:51;;;;;;;5.50;3.80;;;;;;;13.15;45.13;99201.38;224020;1273;137249;-78
2023/03/17 12:39:13;;;;;;;6.10;4.30;;;;;;;13.09;44.64;99195.37;224948;1276;137923;-76
2023/03/17 12:44:38;;;;;;;6.20;4.60;;;;;;;13.11;44.91;99193.38;225231;1283;137547;-78
2023/03/17 12:50:15;;;;;;;8.80;4.40;;;;;;;13.02;44.23;99184.60;225397;1276;136862;-76
2023/03/17 12:55:35;;;;;;;6.80;4.40;;;;;;;12.79;43.19;99176.42;224838;1278;136453;-77
2023/03/17 13:00:57;;;;;;;7.30;3.90;;;;;;;12.60;44.36;99174.00;223403;1276;137896;-79
2023/03/17 13:06:06;;;;;;;11.10;5.00;;;;;;;12.65;44.76;99168.40;226111;1281;137625;-79
2023/03/17 13:11:39;;;;;;;7.40;4.90;;;;;;;12.78;45.11;99164.17;226053;1283;24175;-78
2023/03/17 13:16:50;;;;;;;11.90;4.70;;;;;;;12.89;45.12;99162.47;226014;1278;137141;-77
2023/03/17 13:22:07;;;;;;;8.00;5.20;;;;;;;12.98;44.88;99164.13;225851;1276;138156;-79
2023/03/17 13:27:36;;;;;;;8.20;5.10;;;;;;;12.97;44.48;99159.78;226132;1272;136402;-78
2023/03/17 13:33:37;;;;;;;9.40;6.10;;;;;;;12.99;44.62;99146.23;225735;1280;138673;-77
2023/03/17 13:39:12;;;;;;;7.50;4.30;;;;;;;12.95;43.91;99134.64;225528;1279;138059;-77
2023/03/17 13:44:52;;;;;;;6.40;4.20;;;;;;;12.81;44.21;99123.15;225672;1280;137470;-77
2023/03/17 13:50:07;;;;;;;9.10;4.70;;;;;;;12.82;44.22;99119.86;225673;1286;138055;-78
2023/03/17 13:56:01;;;;;;;6.60;4.00;;;;;;;12.78;43.88;99117.14;225836;1284;138140;-77
2023/03/17 14:01:12;;;;;;;9.20;4.20;;;;;;;12.80;44.16;99106.42;225835;1269;138669;-78
2023/03/17 14:06:20;;;;;;;7.20;4.50;;;;;;;12.86;44.28;99096.85;226055;1280;138096;-78
2023/03/17 14:11:40;;;;;;;8.50;4.10;;;;;;;12.91;44.34;99091.13;226468;1284;24572;-77
2023/03/17 14:17:05;;;;;;;8.60;4.50;;;;;;;12.92;44.33;99076.92;226177;1276;138372;-80
2023/03/17 14:22:23;;;;;;;8.70;4.00;;;;;;;12.91;44.27;99070.96;226234;1264;137837;-75
2023/03/17 14:27:33;;;;;;;8.20;4.20;;;;;;;12.83;43.73;99062.80;225898;1277;137422;-77
2023/03/17 14:32:36;;;;;;;7.70;4.20;;;;;;;12.77;43.98;99058.92;225927;1277;138067;-75
2023/03/17 14:37:48;;;;;;;6.30;4.40;;;;;;;12.75;43.91;99061.87;226104;1278;138098;-76
2023/03/17 14:42:51;;;;;;;7.40;4.20;;;;;;;12.71;43.65;99060.20;226049;1277;137447;-76
2023/03/17 14:47:54;;;;;;;7.70;4.50;;;;;;;12.61;43.60;99057.61;226164;1276;24172;-74
2023/03/17 14:53:26;;;;;;;6.60;4.40;;;;;;;12.42;43.61;99039.95;226468;1260;24263;-76
2023/03/17 14:58:38;;;;;;;6.40;4.40;;;;;;;12.32;43.85;99038.09;224513;1276;138555;-74
2023/03/17 15:03:58;;;;;;;9.10;5.10;;;;;;;12.26;43.93;99027.81;222049;1278;22746;-74
2023/03/17 15:09:17;;;;;;;9.00;4.80;;;;;;;12.16;43.63;99024.63;222018;1283;26161;-75
2023/03/17 15:14:30;;;;;;;7.90;4.30;;;;;;;12.06;43.54;99021.50;221860;1283;25229;-74
2023/03/17 15:19:47;;;;;;;7.50;4.70;;;;;;;11.97;43.70;99015.39;222002;1283;24415;-72
2023/03/17 15:25:39;;;;;;;7.10;4.20;;;;;;;11.89;44.00;99012.02;222022;1280;22787;-73
2023/03/17 15:30:49;;;;;;;7.30;4.50;;;;;;;11.77;44.14;99012.05;222036;1275;23526;-73
2023/03/17 15:35:59;;;;;;;6.90;4.20;;;;;;;11.61;44.08;99011.66;222481;1275;22557;-73
2023/03/17 15:41:04;;;;;;;8.50;5.10;;;;;;;11.51;44.21;99015.25;222460;1275;24260;-74
2023/03/17 15:46:26;;;;;;;8.80;5.90;;;;;;;11.41;44.33;99009.78;222332;1275;22615;-75
2023/03/17 15:51:28;;;;;;;7.40;4.50;;;;;;;11.28;44.50;99012.80;222310;1278;23178;-74
2023/03/17 15:56:34;;;;;;;11.30;5.30;;;;;;;11.13;44.59;99015.32;222293;1275;22620;-73
2023/03/17 16:01:45;;;;;;;10.70;4.80;;;;;;;10.96;44.45;99008.61;222180;1276;24227;-74
2023/03/17 16:06:54;;;;;;;8.10;5.00;;;;;;;10.78;44.80;99005.98;222761;1278;22546;-74
2023/03/17 16:12:11;;;;;;;9.20;5.30;;;;;;;10.59;45.05;99006.98;222276;1277;23243;-73
2023/03/17 16:17:34;;;;;;;;;;;;;;;;;;;;;
2023/03/17 16:23:01;;;;;;;9.50;5.50;;;;;;;10.23;45.20;98996.88;222363;1281;22559;-74
2023/03/17 16:28:14;;;;;;;13.70;7.60;;;;;;;10.07;45.60;98994.73;222333;1275;22640;-74
2023/03/17 16:33:31;;;;;;;19.90;12.90;;;;;;;9.90;45.91;98997.92;222415;1276;23031;-74
2023/03/17 16:38:36;;;;;;;14.80;7.80;;;;;;;9.73;45.95;98996.04;222264;1270;22557;-72
2023/03/17 16:43:44;;;;;;;11.80;6.70;;;;;;;9.54;46.35;99007.53;222384;1280;22600;-74
2023/03/17 16:48:57;;;;;;;15.00;7.90;;;;;;;9.32;46.45;99004.93;222188;1280;25342;-74
2023/03/17 16:54:02;;;;;;;16.00;8.80;;;;;;;9.12;46.82;99007.77;222232;1280;22529;-72
2023/03/17 16:59:09;;;;;;;20.00;10.50;;;;;;;8.95;47.09;99011.04;222443;1276;24218;-75
2023/03/17 17:04:15;;;;;;;17.30;9.40;;;;;;;8.74;47.23;99013.27;222169;1280;22538;-74
2023/03/17 17:09:17;;;;;;;18.60;10.70;;;;;;;8.55;47.25;99012.80;222340;1269;22578;-74
2023/03/17 17:14:24;;;;;;;22.10;10.40;;;;;;;8.35;47.42;99014.63;222291;1280;22563;-75
2023/03/17 17:19:35;;;;;;;16.60;10.10;;;;;;;8.18;47.99;99013.35;222437;1278;22541;-74
2023/03/17 17:24:38;;;;;;;18.90;10.80;;;;;;;8.05;48.11;99015.98;222327;1279;22551;-73
2023/03/17 17:29:43;;;;;;;15.60;8.30;;;;;;;7.94;48.10;99019.95;222211;1280;22561;-74
2023/03/17 17:34:46;;;;;;;34.50;19.10;;;;;;;7.86;48.39;99021.37;222268;1278;23926;-73
2023/03/17 17:39:52;;;;;;;32.60;18.30;;;;;;;7.77;48.47;99017.38;222168;1257;25328;-73
2023/03/17 17:44:54;;;;;;;36.20;19.70;;;;;;;7.65;48.56;99015.94;222403;1277;23905;-74
2023/03/17 17:49:58;;;;;;;35.70;19.60;;;;;;;7.56;48.67;99020.42;222294;1275;22592;-73
2023/03/17 17:55:04;;;;;;;30.30;17.80;;;;;;;7.46;48.94;99021.27;222030;1281;25270;-72
2023/03/17 18:00:17;;;;;;;33.50;16.20;;;;;;;7.40;49.03;99025.45;222277;1280;22552;-72
2023/03/17 18:05:39;;;;;;;30.90;16.40;;;;;;;7.33;49.35;99028.60;222344;1280;25045;-74
2023/03/17 18:10:42;;;;;;;32.50;16.90;;;;;;;7.28;49.31;99029.22;222330;1278;23753;-74
2023/03/17 18:15:48;;;;;;;29.90;16.20;;;;;;;7.19;48.92;99030.34;222506;1280;22747;-74
2023/03/17 18:21:03;;;;;;;31.80;15.70;;;;;;;7.06;49.38;99028.31;222331;1280;22542;-73
2023/03/17 18:26:16;;;;;;;29.80;15.60;;;;;;;6.89;49.90;99030.64;222531;1277;24229;-73
2023/03/17 18:31:26;;;;;;;29.80;15.80;;;;;;;6.71;50.13;99031.45;222596;1277;22562;-72
2023/03/17 18:36:42;;;;;;;29.50;16.10;;;;;;;6.53;50.18;99040.11;222543;1280;22687;-75
2023/03/17 18:41:47;;;;;;;38.20;20.00;;;;;;;6.36;50.02;99037.66;222666;1279;23555;-73
2023/03/17 18:47:04;;;;;;;36.30;20.90;;;;;;;6.20;50.32;99040.44;222712;1280;23219;-74
2023/03/17 18:52:16;;;;;;;31.10;17.50;;;;;;;6.04;50.72;99036.86;222456;1278;22523;-74
2023/03/17 18:57:18;;;;;;;34.00;18.30;;;;;;;5.89;50.89;99029.55;222380;1280;23305;-73
2023/03/17 19:02:21;;;;;;;26.10;15.40;;;;;;;5.79;50.93;99020.64;222502;1276;22554;-74
2023/03/17 19:07:30;;;;;;;31.00;17.40;;;;;;;5.73;51.18;99014.91;222315;1275;22656;-74
2023/03/17 19:12:39;;;;;;;28.90;16.20;;;;;;;5.67;51.30;99010.98;222359;1269;23818;-73
2023/03/17 19:17:46;;;;;;;35.10;18.80;;;;;;;5.66;51.21;99011.02;222351;1272;25018;-73
2023/03/17 19:22:52;;;;;;;30.80;17.60;;;;;;;5.63;51.29;99005.95;222382;1275;22549;-73
2023/03/17 19:28:08;;;;;;;33.20;18.00;;;;;;;5.60;51.55;99001.52;222377;1280;22568;-74
2023/03/17 19:33:19;;;;;;;27.80;15.80;;;;;;;5.59;51.72;98996.76;222385;1280;23360;-73
2023/03/17 19:38:40;;;;;;;23.60;12.60;;;;;;;5.55;51.67;98991.51;222696;1280;25307;-73
2023/03/17 19:43:43;;;;;;;23.30;13.10;;;;;;;5.53;51.85;98990.00;222355;1277;25359;-72
2023/03/17 19:48:52;;;;;;;20.40;10.50;;;;;;;5.51;51.83;98990.32;222520;1262;23377;-74
2023/03/17 19:53:55;;;;;;;21.80;12.00;;;;;;;5.51;51.77;98984.23;222575;1280;23081;-72
2023/03/17 19:59:07;;;;;;;26.60;14.10;;;;;;;5.49;52.00;98983.98;222288;1271;23302;-72
2023/03/17 20:04:21;;;;;;;28.60;13.70;;;;;;;5.46;51.98;98980.06;222352;1280;22534;-72
2023/03/17 20:09:27;;;;;;;23.70;14.00;;;;;;;5.43;51.90;98979.48;222498;1280;25345;-73
2023/03/17 20:14:36;;;;;;;28.50;14.80;;;;;;;5.38;52.10;98974.58;222509;1275;25447;-74
2023/03/17 20:19:42;;;;;;;26.10;14.40;;;;;;;5.32;52.19;98970.55;222430;1280;25260;-73
2023/03/17 20:24:45;;;;;;;27.90;14.70;;;;;;;5.27;52.35;98975.05;222576;1277;22531;-73
2023/03/17 20:29:52;;;;;;;28.70;14.90;;;;;;;5.21;52.58;98965.92;222354;1278;23900;-73
2023/03/17 20:35:06;;;;;;;31.30;16.50;;;;;;;5.12;52.55;98969.92;222148;1280;22588;-72
2023/03/17 20:40:17;;;;;;;30.40;15.70;;;;;;;5.02;52.82;98969.39;223047;1275;22662;-72
2023/03/17 20:45:27;;;;;;;46.70;21.60;;;;;;;4.90;53.07;98967.53;222529;1278;22567;-72
2023/03/17 20:50:41;;;;;;;45.80;22.90;;;;;;;4.78;53.49;98967.45;222388;1280;25364;-74
2023/03/17 20:55:44;;;;;;;46.80;24.10;;;;;;;4.66;53.58;98966.32;222483;1279;23584;-73
2023/03/17 21:00:50;;;;;;;55.50;29.10;;;;;;;4.53;53.85;98971.09;222562;1262;23750;-75
2023/03/17 21:05:52;;;;;;;64.30;31.80;;;;;;;4.38;54.23;98976.72;222357;1280;22582;-73
2023/03/17 21:10:58;;;;;;;50.10;25.40;;;;;;;4.20;54.51;98974.91;222346;1280;22541;-74
2023/03/17 21:16:04;;;;;;;39.30;21.40;;;;;;;4.02;54.97;98978.52;222408;1280;22600;-74
2023/03/17 21:21:06;;;;;;;40.90;20.90;;;;;;;3.83;55.24;98980.02;222376;1280;22552;-74
2023/03/17 21:26:21;;;;;;;51.70;25.90;;;;;;;3.68;55.79;98977.75;222528;1278;22561;-70
2023/03/17 21:31:37;;;;;;;55.10;28.40;;;;;;;3.54;56.04;98982.02;222417;1275;22642;-72
2023/03/17 21:36:49;;;;;;;68.90;32.90;;;;;;;3.44;56.36;98978.79;222501;1276;23705;-72
2023/03/17 21:41:59;;;;;;;69.70;35.90;;;;;;;3.35;56.63;98980.14;222639;1275;22544;-74
2023/03/17 21:47:07;;;;;;;80.20;40.20;;;;;;;3.26;56.92;98980.91;222496;1278;22573;-73
2023/03/17 21:52:15;;;;;;;88.70;42.70;;;;;;;3.15;57.28;98981.39;222587;1280;24228;-74
2023/03/17 21:57:21;;;;;;;81.20;41.90;;;;;;;3.06;57.73;98985.51;222531;1280;23121;-74
2023/03/17 22:02:25;;;;;;;78.30;40.40;;;;;;;2.98;58.20;98990.92;222500;1280;24246;-72
2023/03/17 22:07:33;;;;;;;78.60;38.50;;;;;;;2.90;58.46;98989.21;222609;1280;22630;-72
2023/03/17 22:12:39;;;;;;;73.00;36.80;;;;;;;2.84;58.77;98987.23;222353;1280;22586;-72
2023/03/17 22:17:43;;;;;;;70.50;36.30;;;;;;;2.80;58.95;98984.99;222432;1280;22560;-72
2023/03/17 22:22:55;;;;;;;67.60;35.30;;;;;;;2.74;58.78;98983.63;222389;1280;24860;-74
2023/03/17 22:28:03;;;;;;;67.50;34.80;;;;;;;2.70;59.09;98983.80;222361;1265;23597;-74
2023/03/17 22:33:13;;;;;;;70.40;36.40;;;;;;;2.67;59.42;98985.61;222458;1280;22557;-72
2023/03/17 22:38:37;;;;;;;75.80;37.50;;;;;;;2.61;59.69;98991.34;222497;1280;23562;-73
2023/03/17 22:43:41;;;;;;;74.30;39.00;;;;;;;2.54;60.05;98985.02;222634;1262;25426;-73
2023/03/17 22:48:54;;;;;;;76.20;39.50;;;;;;;2.48;60.33;98979.98;222436;1279;24321;-72
2023/03/17 22:54:02;;;;;;;84.50;40.20;;;;;;;2.41;60.51;98973.94;222602;1278;25355;-73
2023/03/17 22:59:12;;;;;;;87.40;44.20;;;;;;;2.37;60.63;98974.64;222525;1280;22554;-72
2023/03/17 23:04:19;;;;;;;159.20;69.10;;;;;;;2.33;61.17;98973.64;222428;1276;24258;-73
2023/03/17 23:09:25;;;;;;;138.60;62.90;;;;;;;2.28;61.50;98968.50;222550;1278;23804;-72
2023/03/17 23:14:30;;;;;;;106.20;50.80;;;;;;;2.20;61.82;98969.34;222536;1280;22561;-72
2023/03/17 23:19:44;;;;;;;92.80;44.10;;;;;;;2.13;62.23;98965.59;222572;1262;23787;-74
2023/03/17 23:24:46;;;;;;;80.40;42.20;;;;;;;2.10;62.82;98962.50;222512;1278;26804;-72
2023/03/17 23:29:54;;;;;;;88.30;44.00;;;;;;;2.09;62.76;98958.63;222628;1262;23256;-72
2023/03/17 23:34:58;;;;;;;85.90;41.00;;;;;;;2.12;63.07;98962.17;222564;1280;22634;-71
2023/03/17 23:40:15;;;;;;;82.20;39.50;;;;;;;2.17;63.00;98963.02;222514;1280;24263;-72
2023/03/17 23:45:18;;;;;;;82.40;40.70;;;;;;;2.19;63.03;98961.77;222548;1278;24253;-72
2023/03/17 23:50:36;;;;;;;83.50;41.30;;;;;;;2.09;62.53;98968.02;222594;1280;24034;-72
2023/03/17 23:55:49;;;;;;;94.50;42.30;;;;;;;1.97;62.86;98968.67;222821;1280;24207;-74
